createdAt,value
2023-12-01T00:00:43.113Z,99015.34
2023-12-01T00:01:45.238Z,99018.86
2023-12-01T00:02:48.234Z,99025.63
2023-12-01T00:03:50.705Z,99012.79
2023-12-01T00:04:52.975Z,99017.01
2023-12-01T00:05:55.599Z,99011.84
2023-12-01T00:06:57.997Z,98999.12
2023-12-01T00:08:00.138Z,98999.12
2023-12-01T00:09:02.442Z,98993.15
2023-12-01T00:10:06.987Z,98994.06
2023-12-01T00:11:09.221Z,98995.68
2023-12-01T00:12:11.716Z,98988.82
2023-12-01T00:13:13.810Z,98983.66
2023-12-01T00:14:16.119Z,98982.93
2023-12-01T00:15:18.708Z,98983.77
2023-12-01T00:16:22.012Z,98990.56
2023-12-01T00:17:24.234Z,98984.63
2023-12-01T00:18:27.096Z,98988.79
2023-12-01T00:19:29.190Z,98981.96
2023-12-01T00:20:32.351Z,98972.66
2023-12-01T00:21:34.991Z,98966.81
2023-12-01T00:22:37.131Z,98965.04
2023-12-01T00:23:39.112Z,98964.95
2023-12-01T00:24:41.377Z,98961.45
2023-12-01T00:25:44.053Z,98961.36
2023-12-01T00:26:46.761Z,98961.25
2023-12-01T00:27:49.098Z,98961.25
2023-12-01T00:28:51.317Z,98971.37
2023-12-01T00:29:53.361Z,98973.11
2023-12-01T00:30:55.705Z,98977.36
2023-12-01T00:31:58.427Z,98982.47
2023-12-01T00:33:01.336Z,98965.47
2023-12-01T00:34:03.887Z,98976.59
2023-12-01T00:35:06.858Z,98967.99
2023-12-01T00:36:09.971Z,98965.55
2023-12-01T00:37:14.152Z,98968.23
2023-12-01T00:38:16.332Z,98959.76
2023-12-01T00:39:18.524Z,98961.52
2023-12-01T00:40:21.021Z,98964.06
2023-12-01T00:41:23.849Z,98965.79
2023-12-01T00:42:26.312Z,98958.13
2023-12-01T00:43:28.650Z,98953.20
2023-12-01T00:44:30.968Z,98953.27
2023-12-01T00:45:33.042Z,98948.23
2023-12-01T00:46:35.403Z,98943.88
2023-12-01T00:47:37.769Z,98945.43
2023-12-01T00:48:40.699Z,98930.84
2023-12-01T00:49:42.904Z,98924.75
2023-12-01T00:50:46.448Z,98922.06
2023-12-01T00:51:48.708Z,98913.47
2023-12-01T00:52:51.871Z,98913.84
2023-12-01T00:53:54.551Z,98925.76
2023-12-01T00:54:57.061Z,98933.37
2023-12-01T00:55:59.339Z,98927.36
2023-12-01T00:57:02.774Z,98919.66
2023-12-01T00:58:05.293Z,98917.11
2023-12-01T00:59:07.849Z,98905.13
2023-12-01T01:00:11.955Z,98911.84
2023-12-01T01:01:15.146Z,98910.87
2023-12-01T01:02:17.332Z,98899.86
2023-12-01T01:03:19.879Z,98906.62
2023-12-01T01:04:22.309Z,98909.89
2023-12-01T01:05:25.094Z,98893.78
2023-12-01T01:06:27.361Z,98889.76
2023-12-01T01:07:29.624Z,98893.05
2023-12-01T01:08:32.296Z,98887.91
2023-12-01T01:09:34.495Z,98890.33
2023-12-01T01:10:38.864Z,98892.05
2023-12-01T01:11:41.187Z,98896.27
2023-12-01T01:12:43.484Z,98885.44
2023-12-01T01:13:45.626Z,98883.81
2023-12-01T01:14:48.005Z,98876.30
2023-12-01T01:15:50.364Z,98874.61
2023-12-01T01:16:52.784Z,98878.92
2023-12-01T01:17:55.526Z,98876.40
2023-12-01T01:18:58.332Z,98878.16
2023-12-01T01:20:04.562Z,98882.49
2023-12-01T01:21:07.682Z,98882.61
2023-12-01T01:22:10.637Z,98868.97
2023-12-01T01:23:14.262Z,98849.28
2023-12-01T01:24:17.379Z,98839.82
2023-12-01T01:25:19.473Z,98843.24
2023-12-01T01:26:22.486Z,98856.84
2023-12-01T01:27:24.765Z,98849.24
2023-12-01T01:28:26.975Z,98850.87
2023-12-01T01:29:29.013Z,98847.48
2023-12-01T01:30:31.575Z,98838.16
2023-12-01T01:31:34.852Z,98845.86
2023-12-01T01:32:38.537Z,98842.53
2023-12-01T01:33:40.629Z,98845.06
2023-12-01T01:34:43.239Z,98838.23
2023-12-01T01:35:46.704Z,98834.07
2023-12-01T01:36:49.279Z,98818.92
2023-12-01T01:37:51.674Z,98827.52
2023-12-01T01:38:54.634Z,98837.76
2023-12-01T01:39:57.293Z,98839.51
2023-12-01T01:40:59.588Z,98846.28
2023-12-01T01:42:01.853Z,98846.28
2023-12-01T01:43:04.049Z,98845.42
2023-12-01T01:44:06.624Z,98840.31
2023-12-01T01:45:09.362Z,98830.13
2023-12-01T01:46:15.007Z,98834.31
2023-12-01T01:47:18.040Z,98827.48
2023-12-01T01:48:20.769Z,98840.96
2023-12-01T01:49:26.682Z,98819.70
2023-12-01T01:50:29.046Z,98825.52
2023-12-01T01:51:33.094Z,98817.02
2023-12-01T01:52:37.745Z,98831.61
2023-12-01T01:53:44.342Z,98829.20
2023-12-01T01:54:47.628Z,98830.92
2023-12-01T01:55:50.245Z,98813.05
2023-12-01T01:56:53.479Z,98815.63
2023-12-01T01:57:57.522Z,98807.97
2023-12-01T01:59:00.886Z,98806.42
2023-12-01T02:00:03.534Z,98802.27
2023-12-01T02:01:08.969Z,98797.22
2023-12-01T02:02:11.938Z,98780.15
2023-12-01T02:03:14.876Z,98780.15
2023-12-01T02:04:17.795Z,98787.78
2023-12-01T02:05:20.053Z,98778.34
2023-12-01T02:06:24.599Z,98773.23
2023-12-01T02:07:27.616Z,98765.72
2023-12-01T02:08:30.760Z,98751.30
2023-12-01T02:09:34.720Z,98753.81
2023-12-01T02:10:37.204Z,98754.70
2023-12-01T02:11:39.588Z,98771.63
2023-12-01T02:12:43.775Z,98775.10
2023-12-01T02:13:46.213Z,98765.66
2023-12-01T02:14:48.913Z,98760.47
2023-12-01T02:15:52.056Z,98746.74
2023-12-01T02:16:57.088Z,98744.02
2023-12-01T02:17:59.342Z,98733.88
2023-12-01T02:19:01.686Z,98733.23
2023-12-01T02:20:06.393Z,98745.17
2023-12-01T02:21:09.032Z,98741.70
2023-12-01T02:22:11.898Z,98749.48
2023-12-01T02:23:14.106Z,98724.43
2023-12-01T02:24:17.165Z,98724.43
2023-12-01T02:25:19.336Z,98722.50
2023-12-01T02:26:23.920Z,98725.09
2023-12-01T02:27:26.177Z,98725.86
2023-12-01T02:28:28.852Z,98726.06
2023-12-01T02:29:31.151Z,98716.66
2023-12-01T02:30:33.599Z,98719.09
2023-12-01T02:31:37.082Z,98706.42
2023-12-01T02:32:41.011Z,98718.26
2023-12-01T02:33:43.801Z,98715.67
2023-12-01T02:34:46.654Z,98711.52
2023-12-01T02:35:56.325Z,98709.83
2023-12-01T02:37:00.096Z,98705.62
2023-12-01T02:38:02.215Z,98713.30
2023-12-01T02:39:04.959Z,98712.62
2023-12-01T02:41:23.183Z,98695.16
2023-12-01T02:42:25.218Z,98694.42
2023-12-01T02:43:27.471Z,98697.87
2023-12-01T02:44:29.449Z,98690.16
2023-12-01T02:45:31.719Z,98671.42
2023-12-01T02:46:34.819Z,98680.89
2023-12-01T02:47:37.009Z,98671.55
2023-12-01T02:48:40.455Z,98681.66
2023-12-01T02:49:42.715Z,98679.11
2023-12-01T02:50:48.410Z,98691.84
2023-12-01T02:51:50.775Z,98687.66
2023-12-01T02:52:53.151Z,98681.63
2023-12-01T02:53:57.151Z,98691.78
2023-12-01T02:54:59.666Z,98695.03
2023-12-01T02:56:02.633Z,98690.63
2023-12-01T02:57:06.009Z,98686.38
2023-12-01T02:58:08.464Z,98680.45
2023-12-01T02:59:10.684Z,98675.30
2023-12-01T03:00:14.149Z,98674.41
2023-12-01T03:01:17.034Z,98667.58
2023-12-01T03:02:19.504Z,98657.33
2023-12-01T03:03:21.725Z,98649.66
2023-12-01T03:04:24.408Z,98632.69
2023-12-01T03:05:26.544Z,98640.34
2023-12-01T03:06:28.619Z,98631.06
2023-12-01T03:07:31.007Z,98629.27
2023-12-01T03:08:33.426Z,98627.51
2023-12-01T03:09:35.797Z,98627.51
2023-12-01T03:10:38.631Z,98640.31
2023-12-01T03:11:40.818Z,98640.20
2023-12-01T03:12:44.712Z,98635.89
2023-12-01T03:13:46.964Z,98624.81
2023-12-01T03:15:05.369Z,98626.34
2023-12-01T03:15:53.881Z,98623.91
2023-12-01T03:16:59.813Z,98634.02
2023-12-01T03:18:02.436Z,98629.87
2023-12-01T03:19:06.489Z,98626.61
2023-12-01T03:20:12.715Z,98631.72
2023-12-01T03:21:15.778Z,98629.09
2023-12-01T03:22:19.838Z,98624.81
2023-12-01T03:23:21.955Z,98622.14
2023-12-01T03:24:24.092Z,98623.91
2023-12-01T03:25:26.307Z,98621.34
2023-12-01T03:26:28.484Z,98618.19
2023-12-01T03:27:30.536Z,98618.02
2023-12-01T03:28:32.612Z,98607.80
2023-12-01T03:29:38.724Z,98599.34
2023-12-01T03:30:41.744Z,98595.95
2023-12-01T03:31:43.900Z,98592.54
2023-12-01T03:32:49.035Z,98602.68
2023-12-01T03:33:51.352Z,98600.80
2023-12-01T03:34:53.600Z,98588.94
2023-12-01T03:35:55.667Z,98580.29
2023-12-01T03:36:58.139Z,98580.17
2023-12-01T03:38:00.316Z,98578.39
2023-12-01T03:39:02.768Z,98574.07
2023-12-01T03:40:08.410Z,98574.11
2023-12-01T03:41:10.594Z,98565.58
2023-12-01T03:42:12.732Z,98558.73
2023-12-01T03:43:15.213Z,98562.94
2023-12-01T03:44:17.628Z,98564.67
2023-12-01T03:45:20.445Z,98566.36
2023-12-01T03:46:23.119Z,98557.09
2023-12-01T03:47:25.234Z,98560.52
2023-12-01T03:48:28.354Z,98561.30
2023-12-01T03:49:30.551Z,98566.48
2023-12-01T03:50:33.320Z,98576.79
2023-12-01T03:51:36.127Z,98575.14
2023-12-01T03:53:55.193Z,98533.14
2023-12-01T03:55:02.515Z,98525.65
2023-12-01T03:56:06.047Z,98524.73
2023-12-01T03:57:09.183Z,98520.28
2023-12-01T03:58:11.493Z,98519.45
2023-12-01T03:59:13.799Z,98511.75
2023-12-01T04:00:20.493Z,98515.43
2023-12-01T04:01:24.944Z,98503.39
2023-12-01T04:02:27.376Z,98509.27
2023-12-01T04:03:29.503Z,98510.06
2023-12-01T04:04:32.036Z,98504.95
2023-12-01T04:05:34.387Z,98513.57
2023-12-01T04:06:38.198Z,98520.49
2023-12-01T04:07:40.966Z,98522.14
2023-12-01T04:08:45.459Z,98528.90
2023-12-01T04:09:48.959Z,98514.39
2023-12-01T04:10:53.194Z,98525.48
2023-12-01T04:11:56.024Z,98522.96
2023-12-01T04:13:00.512Z,98534.71
2023-12-01T04:14:04.454Z,98538.00
2023-12-01T04:15:07.223Z,98533.49
2023-12-01T04:16:10.324Z,98526.45
2023-12-01T04:17:15.121Z,98530.66
2023-12-01T04:18:17.421Z,98545.22
2023-12-01T04:19:19.577Z,98543.66
2023-12-01T04:20:22.420Z,98529.20
2023-12-01T04:21:25.205Z,98511.30
2023-12-01T04:22:27.489Z,98483.91
2023-12-01T04:23:30.280Z,98476.38
2023-12-01T04:24:36.259Z,98476.33
2023-12-01T04:25:40.150Z,98485.00
2023-12-01T04:26:42.837Z,98496.88
2023-12-01T04:27:48.572Z,98506.23
2023-12-01T04:28:51.511Z,98502.68
2023-12-01T04:29:55.101Z,98496.70
2023-12-01T04:31:04.025Z,98499.34
2023-12-01T04:32:02.970Z,98504.45
2023-12-01T04:33:05.437Z,98506.83
2023-12-01T04:34:07.692Z,98506.78
2023-12-01T04:35:11.457Z,98492.20
2023-12-01T04:36:14.617Z,98487.19
2023-12-01T04:37:17.417Z,98487.00
2023-12-01T04:38:19.717Z,98478.80
2023-12-01T04:39:23.845Z,98471.13
2023-12-01T04:40:30.305Z,98474.55
2023-12-01T04:41:33.208Z,98478.66
2023-12-01T04:42:37.408Z,98482.66
2023-12-01T04:43:42.865Z,98491.77
2023-12-01T04:44:45.124Z,98506.11
2023-12-01T04:45:47.664Z,98506.39
2023-12-01T04:46:50.050Z,98507.93
2023-12-01T04:47:54.405Z,98486.78
2023-12-01T04:48:56.828Z,98482.31
2023-12-01T04:49:59.411Z,98489.11
2023-12-01T04:51:01.725Z,98494.00
2023-12-01T04:52:06.121Z,98499.75
2023-12-01T04:53:08.495Z,98476.58
2023-12-01T04:54:13.644Z,98476.58
2023-12-01T04:55:18.712Z,98466.25
2023-12-01T04:56:21.156Z,98466.55
2023-12-01T04:57:23.509Z,98454.82
2023-12-01T04:58:26.357Z,98461.58
2023-12-01T04:59:29.186Z,98458.09
2023-12-01T05:00:31.615Z,98455.25
2023-12-01T05:01:35.713Z,98447.42
2023-12-01T05:02:38.828Z,98452.89
2023-12-01T05:03:42.250Z,98451.34
2023-12-01T05:04:44.624Z,98466.64
2023-12-01T05:05:46.923Z,98475.99
2023-12-01T05:06:49.504Z,98471.95
2023-12-01T05:07:53.683Z,98485.70
2023-12-01T05:08:56.842Z,98486.70
2023-12-01T05:09:59.535Z,98475.59
2023-12-01T05:11:01.766Z,98478.89
2023-12-01T05:12:05.910Z,98486.56
2023-12-01T05:13:08.495Z,98487.23
2023-12-01T05:14:10.976Z,98487.19
2023-12-01T05:15:16.188Z,98495.55
2023-12-01T05:16:18.844Z,98482.23
2023-12-01T05:17:22.229Z,98484.00
2023-12-01T05:18:25.184Z,98479.72
2023-12-01T05:19:28.700Z,98473.78
2023-12-01T05:20:32.362Z,98467.84
2023-12-01T05:21:34.598Z,98464.17
2023-12-01T05:22:36.978Z,98473.44
2023-12-01T05:23:39.048Z,98488.69
2023-12-01T05:24:41.429Z,98490.17
2023-12-01T05:25:44.562Z,98494.33
2023-12-01T05:26:48.093Z,98484.10
2023-12-01T05:27:52.042Z,98473.20
2023-12-01T05:28:54.163Z,98476.34
2023-12-01T05:30:09.811Z,98469.48
2023-12-01T05:31:12.282Z,98464.70
2023-12-01T05:32:14.448Z,98461.14
2023-12-01T05:33:18.382Z,98466.20
2023-12-01T05:34:20.854Z,98472.12
2023-12-01T05:35:23.952Z,98481.45
2023-12-01T05:36:26.341Z,98480.62
2023-12-01T05:37:29.835Z,98477.81
2023-12-01T05:38:34.825Z,98471.89
2023-12-01T05:39:37.484Z,98464.16
2023-12-01T05:40:41.362Z,98454.07
2023-12-01T05:41:45.213Z,98448.80
2023-12-01T05:42:49.660Z,98444.61
2023-12-01T05:43:51.866Z,98452.17
2023-12-01T05:44:54.850Z,98452.17
2023-12-01T05:45:59.264Z,98463.13
2023-12-01T05:47:01.734Z,98468.80
2023-12-01T05:48:09.465Z,98486.81
2023-12-01T05:49:12.066Z,98492.72
2023-12-01T05:50:17.948Z,98498.64
2023-12-01T05:51:20.316Z,98494.49
2023-12-01T05:52:22.963Z,98490.00
2023-12-01T05:53:25.239Z,98490.75
2023-12-01T05:54:29.519Z,98492.94
2023-12-01T05:55:36.273Z,98487.00
2023-12-01T05:56:38.563Z,98493.87
2023-12-01T05:57:41.410Z,98493.80
2023-12-01T05:58:44.717Z,98488.59
2023-12-01T05:59:49.757Z,98472.30
2023-12-01T06:00:53.272Z,98461.30
2023-12-01T06:01:55.622Z,98453.56
2023-12-01T06:03:00.069Z,98444.19
2023-12-01T06:04:04.341Z,98436.41
2023-12-01T06:05:07.338Z,98442.44
2023-12-01T06:06:12.359Z,98442.34
2023-12-01T06:07:14.724Z,98439.06
2023-12-01T06:08:17.500Z,98446.81
2023-12-01T06:09:20.794Z,98449.20
2023-12-01T06:10:25.314Z,98454.09
2023-12-01T06:11:27.675Z,98452.41
2023-12-01T06:12:30.953Z,98452.41
2023-12-01T06:13:33.181Z,98445.53
2023-12-01T06:14:35.702Z,98436.75
2023-12-01T06:15:38.356Z,98438.22
2023-12-01T06:16:40.829Z,98433.20
2023-12-01T06:17:45.294Z,98447.56
2023-12-01T06:18:48.111Z,98457.83
2023-12-01T06:19:50.762Z,98463.69
2023-12-01T06:20:54.617Z,98461.83
2023-12-01T06:21:58.786Z,98454.92
2023-12-01T06:23:04.663Z,98443.19
2023-12-01T06:24:08.068Z,98440.63
2023-12-01T06:25:11.129Z,98434.59
2023-12-01T06:26:13.636Z,98424.09
2023-12-01T06:27:16.130Z,98428.97
2023-12-01T06:28:18.539Z,98426.43
2023-12-01T06:29:21.828Z,98427.23
2023-12-01T06:30:27.101Z,98425.86
2023-12-01T06:31:29.499Z,98430.73
2023-12-01T06:32:31.901Z,98449.30
2023-12-01T06:33:34.024Z,98459.55
2023-12-01T06:34:36.838Z,98462.05
2023-12-01T06:35:39.183Z,98449.47
2023-12-01T06:36:41.913Z,98447.68
2023-12-01T06:37:48.775Z,98445.85
2023-12-01T06:38:50.841Z,98431.48
2023-12-01T06:39:52.934Z,98428.79
2023-12-01T06:40:55.308Z,98413.41
2023-12-01T06:41:57.600Z,98422.94
2023-12-01T06:42:59.688Z,98421.98
2023-12-01T06:44:02.015Z,98418.43
2023-12-01T06:45:05.044Z,98418.41
2023-12-01T06:46:07.613Z,98421.72
2023-12-01T06:47:10.425Z,98421.53
2023-12-01T06:48:14.021Z,98427.35
2023-12-01T06:49:19.938Z,98429.99
2023-12-01T06:50:27.235Z,98420.59
2023-12-01T06:51:31.939Z,98421.34
2023-12-01T06:52:35.678Z,98414.53
2023-12-01T06:53:37.978Z,98415.91
2023-12-01T06:54:40.042Z,98431.17
2023-12-01T06:55:42.500Z,98442.78
2023-12-01T06:56:44.873Z,98435.49
2023-12-01T06:57:49.763Z,98431.73
2023-12-01T06:58:51.907Z,98425.03
2023-12-01T06:59:55.368Z,98419.62
2023-12-01T07:00:58.504Z,98419.62
2023-12-01T07:02:00.600Z,98410.86
2023-12-01T07:03:04.781Z,98414.22
2023-12-01T07:04:08.339Z,98411.39
2023-12-01T07:05:13.419Z,98416.37
2023-12-01T07:06:17.630Z,98417.32
2023-12-01T07:07:20.206Z,98426.59
2023-12-01T07:08:22.971Z,98414.69
2023-12-01T07:09:25.818Z,98402.23
2023-12-01T07:10:29.369Z,98398.89
2023-12-01T07:11:31.799Z,98392.02
2023-12-01T07:12:35.185Z,98391.09
2023-12-01T07:13:37.821Z,98405.94
2023-12-01T07:14:40.164Z,98415.91
2023-12-01T07:15:43.194Z,98423.16
2023-12-01T07:16:45.909Z,98426.47
2023-12-01T07:17:54.591Z,98433.17
2023-12-01T07:18:57.144Z,98420.59
2023-12-01T07:19:59.792Z,98410.20
2023-12-01T07:21:04.485Z,98408.61
2023-12-01T07:22:07.508Z,98406.34
2023-12-01T07:23:09.776Z,98408.09
2023-12-01T07:24:13.131Z,98417.50
2023-12-01T07:25:23.746Z,98436.98
2023-12-01T07:26:31.809Z,98433.44
2023-12-01T07:27:35.236Z,98434.53
2023-12-01T07:28:38.903Z,98445.67
2023-12-01T07:29:43.011Z,98433.81
2023-12-01T07:30:45.458Z,98437.66
2023-12-01T07:31:47.705Z,98432.95
2023-12-01T07:32:51.400Z,98434.53
2023-12-01T07:33:53.674Z,98427.65
2023-12-01T07:34:56.179Z,98422.70
2023-12-01T07:35:58.492Z,98429.19
2023-12-01T07:37:01.443Z,98420.44
2023-12-01T07:38:05.062Z,98406.47
2023-12-01T07:39:09.835Z,98401.84
2023-12-01T07:40:15.898Z,98405.98
2023-12-01T07:41:18.552Z,98410.80
2023-12-01T07:42:20.813Z,98405.91
2023-12-01T07:43:23.164Z,98403.53
2023-12-01T07:44:28.179Z,98402.78
2023-12-01T07:45:30.367Z,98398.22
2023-12-01T07:46:35.712Z,98388.73
2023-12-01T07:47:38.056Z,98392.61
2023-12-01T07:48:40.785Z,98374.48
2023-12-01T07:49:44.018Z,98370.63
2023-12-01T07:50:46.680Z,98370.63
2023-12-01T07:51:48.957Z,98368.46
2023-12-01T07:52:52.393Z,98379.19
2023-12-01T07:53:54.677Z,98395.78
2023-12-01T07:54:56.907Z,98386.10
2023-12-01T07:56:00.280Z,98397.49
2023-12-01T07:57:04.574Z,98388.05
2023-12-01T07:58:07.473Z,98386.03
2023-12-01T07:59:09.786Z,98393.41
2023-12-01T08:01:28.824Z,98408.61
2023-12-01T08:02:31.040Z,98399.53
2023-12-01T08:03:33.507Z,98379.11
2023-12-01T08:04:35.907Z,98379.11
2023-12-01T08:05:39.838Z,98379.00
2023-12-01T08:06:42.364Z,98369.42
2023-12-01T08:07:47.514Z,98386.35
2023-12-01T08:08:50.157Z,98399.31
2023-12-01T08:09:54.474Z,98412.61
2023-12-01T08:10:58.489Z,98414.86
2023-12-01T08:12:03.885Z,98416.73
2023-12-01T08:13:06.174Z,98405.11
2023-12-01T08:14:08.933Z,98406.39
2023-12-01T08:15:12.153Z,98414.77
2023-12-01T08:16:15.142Z,98418.76
2023-12-01T08:17:17.482Z,98431.03
2023-12-01T08:18:19.765Z,98425.80
2023-12-01T08:19:23.126Z,98424.79
2023-12-01T08:20:25.510Z,98436.73
2023-12-01T08:21:27.746Z,98426.28
2023-12-01T08:22:30.831Z,98434.78
2023-12-01T08:23:35.719Z,98427.78
2023-12-01T08:24:38.316Z,98427.53
2023-12-01T08:25:45.314Z,98434.20
2023-12-01T08:26:49.229Z,98414.42
2023-12-01T08:27:52.695Z,98417.90
2023-12-01T08:28:55.033Z,98411.17
2023-12-01T08:29:57.558Z,98418.35
2023-12-01T08:31:01.076Z,98423.11
2023-12-01T08:32:04.090Z,98430.55
2023-12-01T08:33:06.595Z,98432.71
2023-12-01T08:34:21.896Z,98432.71
2023-12-01T08:35:13.166Z,98426.78
2023-12-01T08:36:18.457Z,98422.27
2023-12-01T08:37:22.078Z,98412.66
2023-12-01T08:38:24.875Z,98405.80
2023-12-01T08:39:27.361Z,98412.74
2023-12-01T08:40:29.638Z,98402.13
2023-12-01T08:41:31.939Z,98390.85
2023-12-01T08:42:34.078Z,98402.97
2023-12-01T08:43:36.979Z,98402.28
2023-12-01T08:44:39.309Z,98403.98
2023-12-01T08:45:41.875Z,98402.30
2023-12-01T08:46:44.278Z,98408.17
2023-12-01T08:47:46.786Z,98412.17
2023-12-01T08:48:49.313Z,98400.42
2023-12-01T08:49:51.480Z,98395.78
2023-12-01T08:50:53.764Z,98400.41
2023-12-01T08:51:56.540Z,98405.22
2023-12-01T08:52:58.788Z,98414.05
2023-12-01T08:54:01.175Z,98407.43
2023-12-01T08:55:06.912Z,98408.91
2023-12-01T08:56:10.705Z,98402.09
2023-12-01T08:57:13.028Z,98405.23
2023-12-01T08:58:16.099Z,98396.64
2023-12-01T08:59:19.517Z,98399.42
2023-12-01T09:00:23.239Z,98385.45
2023-12-01T09:01:27.093Z,98379.83
2023-12-01T09:02:30.158Z,98379.25
2023-12-01T09:03:33.133Z,98376.91
2023-12-01T09:04:36.260Z,98372.77
2023-12-01T09:05:38.659Z,98385.64
2023-12-01T09:06:41.145Z,98403.85
2023-12-01T09:07:44.527Z,98408.28
2023-12-01T09:08:47.732Z,98421.98
2023-12-01T09:09:49.937Z,98408.05
2023-12-01T09:10:53.800Z,98408.80
2023-12-01T09:11:55.963Z,98396.80
2023-12-01T09:12:58.319Z,98399.30
2023-12-01T09:14:01.724Z,98401.84
2023-12-01T09:15:05.442Z,98405.54
2023-12-01T09:16:08.647Z,98398.66
2023-12-01T09:17:10.925Z,98393.79
2023-12-01T09:18:14.245Z,98401.27
2023-12-01T09:19:16.813Z,98381.53
2023-12-01T09:20:21.716Z,98381.53
2023-12-01T09:21:24.386Z,98406.09
2023-12-01T09:22:27.272Z,98407.16
2023-12-01T09:23:30.232Z,98420.55
2023-12-01T09:24:32.621Z,98422.34
2023-12-01T09:25:35.760Z,98411.11
2023-12-01T09:26:38.301Z,98419.16
2023-12-01T09:27:42.939Z,98422.34
2023-12-01T09:28:47.532Z,98417.22
2023-12-01T09:29:50.803Z,98422.52
2023-12-01T09:30:53.807Z,98409.30
2023-12-01T09:31:56.649Z,98418.61
2023-12-01T09:32:59.397Z,98431.53
2023-12-01T09:34:01.916Z,98446.93
2023-12-01T09:35:05.701Z,98430.28
2023-12-01T09:36:10.413Z,98420.03
2023-12-01T09:37:16.080Z,98414.03
2023-12-01T09:38:19.259Z,98425.39
2023-12-01T09:39:21.365Z,98424.45
2023-12-01T09:40:25.686Z,98435.05
2023-12-01T09:41:28.863Z,98431.69
2023-12-01T09:42:34.347Z,98442.16
2023-12-01T09:43:36.544Z,98434.42
2023-12-01T09:44:38.530Z,98421.80
2023-12-01T09:45:40.925Z,98424.88
2023-12-01T09:46:43.987Z,98412.77
2023-12-01T09:47:49.999Z,98410.20
2023-12-01T09:48:53.462Z,98404.39
2023-12-01T09:49:55.870Z,98405.72
2023-12-01T09:50:59.108Z,98396.98
2023-12-01T09:52:03.965Z,98408.38
2023-12-01T09:53:07.089Z,98405.68
2023-12-01T09:54:09.821Z,98405.83
2023-12-01T09:55:13.635Z,98397.86
2023-12-01T09:56:18.976Z,98404.48
2023-12-01T09:57:21.287Z,98416.48
2023-12-01T09:58:27.262Z,98414.73
2023-12-01T09:59:30.672Z,98424.80
2023-12-01T10:00:35.176Z,98411.44
2023-12-01T10:01:39.277Z,98419.86
2023-12-01T10:02:44.601Z,98417.83
2023-12-01T10:03:47.144Z,98410.66
2023-12-01T10:04:51.935Z,98419.16
2023-12-01T10:05:56.814Z,98429.30
2023-12-01T10:07:03.539Z,98440.41
2023-12-01T10:08:05.748Z,98443.27
2023-12-01T10:09:09.784Z,98454.44
2023-12-01T10:10:21.433Z,98456.78
2023-12-01T10:11:27.370Z,98463.05
2023-12-01T10:12:29.529Z,98463.39
2023-12-01T10:13:40.839Z,98456.70
2023-12-01T10:14:43.402Z,98457.70
2023-12-01T10:15:48.042Z,98448.91
2023-12-01T10:16:51.343Z,98445.30
2023-12-01T10:17:54.731Z,98445.90
2023-12-01T10:19:01.832Z,98442.63
2023-12-01T10:20:06.098Z,98439.59
2023-12-01T10:21:09.597Z,98443.95
2023-12-01T10:22:13.655Z,98446.46
2023-12-01T10:23:20.185Z,98438.53
2023-12-01T10:24:23.963Z,98442.12
2023-12-01T10:25:29.483Z,98442.89
2023-12-01T10:26:32.277Z,98455.08
2023-12-01T10:27:36.411Z,98459.71
2023-12-01T10:28:42.455Z,98451.66
2023-12-01T10:29:45.501Z,98437.16
2023-12-01T10:30:55.698Z,98447.22
2023-12-01T10:32:03.196Z,98446.65
2023-12-01T10:33:05.718Z,98440.34
2023-12-01T10:34:09.209Z,98446.95
2023-12-01T10:35:12.500Z,98440.41
2023-12-01T10:36:17.230Z,98439.06
2023-12-01T10:37:21.456Z,98428.89
2023-12-01T10:38:26.669Z,98425.29
2023-12-01T10:39:29.885Z,98423.06
2023-12-01T10:40:32.606Z,98432.75
2023-12-01T10:41:37.283Z,98436.34
2023-12-01T10:42:42.173Z,98437.27
2023-12-01T10:43:46.209Z,98442.23
2023-12-01T10:44:49.770Z,98444.90
2023-12-01T10:45:53.193Z,98447.41
2023-12-01T10:46:58.274Z,98455.08
2023-12-01T10:48:02.036Z,98460.03
2023-12-01T10:49:07.008Z,98456.44
2023-12-01T10:50:11.125Z,98454.59
2023-12-01T10:51:14.192Z,98460.47
2023-12-01T10:52:17.788Z,98461.06
2023-12-01T10:53:22.916Z,98456.34
2023-12-01T10:54:27.018Z,98452.63
2023-12-01T10:55:29.488Z,98458.69
2023-12-01T10:56:36.616Z,98451.06
2023-12-01T10:57:42.003Z,98443.14
2023-12-01T10:58:46.930Z,98434.36
2023-12-01T10:59:56.748Z,98445.47
2023-12-01T11:01:00.131Z,98462.31
2023-12-01T11:02:03.015Z,98453.58
2023-12-01T11:03:09.166Z,98442.69
2023-12-01T11:04:14.370Z,98456.06
2023-12-01T11:05:18.042Z,98461.06
2023-12-01T11:06:29.047Z,98452.17
2023-12-01T11:07:44.236Z,98452.17
2023-12-01T11:09:15.055Z,98474.83
2023-12-01T11:10:30.773Z,98467.59
2023-12-01T11:11:39.575Z,98461.55
2023-12-01T11:13:02.700Z,98440.80
2023-12-01T11:14:22.380Z,98449.02
2023-12-01T11:15:28.575Z,98446.00
2023-12-01T11:16:34.185Z,98460.39
2023-12-01T11:17:36.582Z,98465.09
2023-12-01T11:18:39.646Z,98452.98
2023-12-01T11:19:45.361Z,98459.72
2023-12-01T11:20:53.407Z,98472.78
2023-12-01T11:21:57.848Z,98476.22
2023-12-01T11:23:15.710Z,98499.67
2023-12-01T11:24:30.253Z,98505.08
2023-12-01T11:25:49.375Z,98499.59
2023-12-01T11:26:53.955Z,98497.77
2023-12-01T11:27:56.549Z,98491.69
2023-12-01T11:29:07.335Z,98492.28
2023-12-01T11:30:12.351Z,98496.89
2023-12-01T11:31:21.780Z,98507.45
2023-12-01T11:32:33.986Z,98499.82
2023-12-01T11:33:43.369Z,98503.09
2023-12-01T11:35:07.494Z,98505.23
2023-12-01T11:36:34.903Z,98506.83
2023-12-01T11:38:03.751Z,98500.28
2023-12-01T11:39:14.309Z,98497.95
2023-12-01T11:40:22.122Z,98484.16
2023-12-01T11:41:24.380Z,98488.97
2023-12-01T11:42:26.709Z,98474.02
2023-12-01T11:43:37.842Z,98479.14
2023-12-01T11:44:38.733Z,98474.36
2023-12-01T11:45:45.501Z,98475.07
2023-12-01T11:46:48.170Z,98475.95
2023-12-01T11:47:52.775Z,98481.55
2023-12-01T11:48:55.102Z,98496.47
2023-12-01T11:49:57.298Z,98500.33
2023-12-01T11:51:00.171Z,98506.33
2023-12-01T11:52:05.080Z,98508.36
2023-12-01T11:54:26.157Z,98495.82
2023-12-01T11:55:29.386Z,98494.31
2023-12-01T11:56:32.849Z,98485.95
2023-12-01T11:57:35.124Z,98485.88
2023-12-01T11:58:38.009Z,98496.47
2023-12-01T11:59:40.777Z,98503.45
2023-12-01T12:00:44.726Z,98496.38
2023-12-01T12:01:49.658Z,98503.29
2023-12-01T12:02:53.045Z,98501.90
2023-12-01T12:03:57.681Z,98511.05
2023-12-01T12:05:01.911Z,98505.55
2023-12-01T12:06:07.470Z,98513.24
2023-12-01T12:07:11.597Z,98508.35
2023-12-01T12:08:13.928Z,98515.21
2023-12-01T12:09:20.428Z,98525.91
2023-12-01T12:10:29.495Z,98528.94
2023-12-01T12:11:32.662Z,98541.28
2023-12-01T12:12:36.340Z,98556.24
2023-12-01T12:13:39.273Z,98567.59
2023-12-01T12:14:41.963Z,98571.89
2023-12-01T12:15:44.372Z,98565.73
2023-12-01T12:16:46.897Z,98556.64
2023-12-01T12:17:50.415Z,98573.10
2023-12-01T12:18:53.176Z,98557.34
2023-12-01T12:20:02.159Z,98565.57
2023-12-01T12:21:02.439Z,98562.84
2023-12-01T12:22:05.944Z,98561.78
2023-12-01T12:23:08.442Z,98552.28
2023-12-01T12:24:11.812Z,98550.80
2023-12-01T12:25:15.260Z,98538.12
2023-12-01T12:26:20.695Z,98543.23
2023-12-01T12:27:23.129Z,98549.27
2023-12-01T12:28:25.927Z,98541.77
2023-12-01T12:29:28.587Z,98542.53
2023-12-01T12:30:32.626Z,98536.75
2023-12-01T12:31:37.270Z,98520.61
2023-12-01T12:32:39.952Z,98534.20
2023-12-01T12:33:42.452Z,98534.20